Terminal Aerodrome Forecast
Issued by NWS

Home | Current Version | Previous Version | Text Only | Print | Product List | Glossary On
Versions: 1 2 3 4 5 6 7 8 9 10 11 12 13 14 15 16 17 18 19 20
460
FTUS43 KAPX 300520
TAFMBL
TAF
KMBL 300520Z 3006/0106 06009KT P6SM BKN025 OVC040
     FM301200 05009KT P6SM OVC020
     FM301500 07010G19KT P6SM VCSH OVC025
     FM301800 07009KT P6SM VCSH OVC030
     FM010300 08008KT P6SM -SHRA OVC035=

USA.gov is the U.S. government's official web portal to all federal, state and local government web resources and services.